sensor_id;sensor_type;location;lat;lon;timestamp;P1;durP1;ratioP1;P2;durP2;ratioP2
32082;SDS011;18597;48.328;7.932;2023-04-03T00:00:28;2.30;;;2.20;;
32082;SDS011;18597;48.328;7.932;2023-04-03T00:02:55;2.57;;;2.37;;
32082;SDS011;18597;48.328;7.932;2023-04-03T00:05:21;1.87;;;1.87;;
32082;SDS011;18597;48.328;7.932;2023-04-03T00:07:47;4.43;;;2.90;;
32082;SDS011;18597;48.328;7.932;2023-04-03T00:10:14;2.50;;;2.50;;
32082;SDS011;18597;48.328;7.932;2023-04-03T00:12:40;2.30;;;2.20;;
32082;SDS011;18597;48.328;7.932;2023-04-03T00:15:07;2.80;;;2.70;;
32082;SDS011;18597;48.328;7.932;2023-04-03T00:17:34;3.10;;;3.00;;
32082;SDS011;18597;48.328;7.932;2023-04-03T00:20:00;2.80;;;2.57;;
32082;SDS011;18597;48.328;7.932;2023-04-03T00:22:27;2.17;;;2.10;;
32082;SDS011;18597;48.328;7.932;2023-04-03T00:24:53;2.60;;;2.60;;
32082;SDS011;18597;48.328;7.932;2023-04-03T00:27:20;2.70;;;2.60;;
32082;SDS011;18597;48.328;7.932;2023-04-03T00:29:46;3.33;;;3.13;;
32082;SDS011;18597;48.328;7.932;2023-04-03T00:32:11;3.30;;;3.10;;
32082;SDS011;18597;48.328;7.932;2023-04-03T00:34:38;3.50;;;3.30;;
32082;SDS011;18597;48.328;7.932;2023-04-03T00:37:04;3.23;;;3.10;;
32082;SDS011;18597;48.328;7.932;2023-04-03T00:39:30;2.70;;;2.60;;
32082;SDS011;18597;48.328;7.932;2023-04-03T00:41:56;2.93;;;2.70;;
32082;SDS011;18597;48.328;7.932;2023-04-03T00:44:23;3.03;;;2.93;;
32082;SDS011;18597;48.328;7.932;2023-04-03T00:47:20;3.50;;;2.83;;
32082;SDS011;18597;48.328;7.932;2023-04-03T00:49:45;4.47;;;3.07;;
32082;SDS011;18597;48.328;7.932;2023-04-03T00:52:13;3.10;;;2.90;;
32082;SDS011;18597;48.328;7.932;2023-04-03T00:54:43;5.80;;;4.00;;
32082;SDS011;18597;48.328;7.932;2023-04-03T00:57:11;2.60;;;2.50;;
32082;SDS011;18597;48.328;7.932;2023-04-03T00:59:38;2.93;;;2.63;;
32082;SDS011;18597;48.328;7.932;2023-04-03T01:02:11;3.23;;;3.03;;
32082;SDS011;18597;48.328;7.932;2023-04-03T01:04:38;3.60;;;3.13;;
32082;SDS011;18597;48.328;7.932;2023-04-03T01:07:08;2.40;;;2.30;;
32082;SDS011;18597;48.328;7.932;2023-04-03T01:09:44;3.67;;;3.03;;
32082;SDS011;18597;48.328;7.932;2023-04-03T01:12:13;3.90;;;3.60;;
32082;SDS011;18597;48.328;7.932;2023-04-03T01:14:52;4.13;;;3.10;;
32082;SDS011;18597;48.328;7.932;2023-04-03T01:17:29;2.97;;;2.87;;
32082;SDS011;18597;48.328;7.932;2023-04-03T01:25:52;3.30;;;3.10;;
32082;SDS011;18597;48.328;7.932;2023-04-03T01:28:22;4.53;;;4.23;;
32082;SDS011;18597;48.328;7.932;2023-04-03T01:31:00;2.67;;;2.57;;
32082;SDS011;18597;48.328;7.932;2023-04-03T01:34:08;11.83;;;2.97;;
32082;SDS011;18597;48.328;7.932;2023-04-03T01:36:33;3.43;;;3.33;;
32082;SDS011;18597;48.328;7.932;2023-04-03T01:39:00;3.23;;;3.03;;
32082;SDS011;18597;48.328;7.932;2023-04-03T01:41:27;3.73;;;2.90;;
32082;SDS011;18597;48.328;7.932;2023-04-03T01:43:53;3.83;;;3.50;;
32082;SDS011;18597;48.328;7.932;2023-04-03T01:46:19;3.33;;;3.20;;
32082;SDS011;18597;48.328;7.932;2023-04-03T01:48:46;3.20;;;3.00;;
32082;SDS011;18597;48.328;7.932;2023-04-03T01:51:13;8.20;;;3.60;;
32082;SDS011;18597;48.328;7.932;2023-04-03T01:53:39;3.27;;;3.07;;
32082;SDS011;18597;48.328;7.932;2023-04-03T01:56:05;3.30;;;3.20;;
32082;SDS011;18597;48.328;7.932;2023-04-03T01:58:31;3.10;;;3.00;;
32082;SDS011;18597;48.328;7.932;2023-04-03T02:00:57;3.07;;;2.87;;
32082;SDS011;18597;48.328;7.932;2023-04-03T02:03:23;3.97;;;2.87;;
32082;SDS011;18597;48.328;7.932;2023-04-03T02:05:49;3.20;;;3.10;;
32082;SDS011;18597;48.328;7.932;2023-04-03T02:08:15;3.07;;;2.87;;
32082;SDS011;18597;48.328;7.932;2023-04-03T02:10:43;3.20;;;3.00;;
32082;SDS011;18597;48.328;7.932;2023-04-03T02:13:12;3.47;;;3.27;;
32082;SDS011;18597;48.328;7.932;2023-04-03T02:15:38;4.70;;;3.37;;
32082;SDS011;18597;48.328;7.932;2023-04-03T02:18:04;3.20;;;3.10;;
32082;SDS011;18597;48.328;7.932;2023-04-03T02:20:31;3.20;;;3.10;;
32082;SDS011;18597;48.328;7.932;2023-04-03T02:22:58;2.47;;;2.37;;
32082;SDS011;18597;48.328;7.932;2023-04-03T02:25:25;3.40;;;2.90;;
32082;SDS011;18597;48.328;7.932;2023-04-03T02:27:51;2.97;;;2.70;;
32082;SDS011;18597;48.328;7.932;2023-04-03T02:30:17;3.80;;;2.47;;
32082;SDS011;18597;48.328;7.932;2023-04-03T02:32:43;2.70;;;2.60;;
32082;SDS011;18597;48.328;7.932;2023-04-03T02:35:10;5.63;;;2.67;;
32082;SDS011;18597;48.328;7.932;2023-04-03T02:37:37;5.93;;;2.97;;
32082;SDS011;18597;48.328;7.932;2023-04-03T02:40:03;2.80;;;2.63;;
32082;SDS011;18597;48.328;7.932;2023-04-03T02:42:31;2.80;;;2.70;;
32082;SDS011;18597;48.328;7.932;2023-04-03T02:44:57;2.90;;;2.70;;
32082;SDS011;18597;48.328;7.932;2023-04-03T02:47:25;2.60;;;2.40;;
32082;SDS011;18597;48.328;7.932;2023-04-03T02:49:52;2.77;;;2.53;;
32082;SDS011;18597;48.328;7.932;2023-04-03T02:52:18;2.80;;;2.70;;
32082;SDS011;18597;48.328;7.932;2023-04-03T02:54:44;3.20;;;2.90;;
32082;SDS011;18597;48.328;7.932;2023-04-03T02:57:10;3.10;;;2.90;;
32082;SDS011;18597;48.328;7.932;2023-04-03T02:59:36;3.07;;;2.83;;
32082;SDS011;18597;48.328;7.932;2023-04-03T03:02:05;3.70;;;3.50;;
32082;SDS011;18597;48.328;7.932;2023-04-03T03:04:33;4.77;;;2.97;;
32082;SDS011;18597;48.328;7.932;2023-04-03T03:06:59;3.60;;;3.30;;
32082;SDS011;18597;48.328;7.932;2023-04-03T03:09:25;3.37;;;2.97;;
32082;SDS011;18597;48.328;7.932;2023-04-03T03:11:51;2.70;;;2.60;;
32082;SDS011;18597;48.328;7.932;2023-04-03T03:14:17;3.10;;;3.00;;
32082;SDS011;18597;48.328;7.932;2023-04-03T03:16:43;3.23;;;3.00;;
32082;SDS011;18597;48.328;7.932;2023-04-03T03:19:09;3.27;;;3.07;;
32082;SDS011;18597;48.328;7.932;2023-04-03T03:21:36;4.33;;;4.03;;
32082;SDS011;18597;48.328;7.932;2023-04-03T03:24:01;2.50;;;2.40;;
32082;SDS011;18597;48.328;7.932;2023-04-03T03:26:27;2.67;;;2.57;;
32082;SDS011;18597;48.328;7.932;2023-04-03T03:28:53;4.33;;;3.47;;
32082;SDS011;18597;48.328;7.932;2023-04-03T03:31:19;2.70;;;2.60;;
32082;SDS011;18597;48.328;7.932;2023-04-03T03:33:45;3.60;;;3.40;;
32082;SDS011;18597;48.328;7.932;2023-04-03T03:36:11;3.17;;;2.87;;
32082;SDS011;18597;48.328;7.932;2023-04-03T03:38:37;3.17;;;3.00;;
32082;SDS011;18597;48.328;7.932;2023-04-03T03:41:03;3.20;;;3.10;;
32082;SDS011;18597;48.328;7.932;2023-04-03T03:43:29;2.80;;;2.70;;
32082;SDS011;18597;48.328;7.932;2023-04-03T03:45:55;3.00;;;2.70;;
32082;SDS011;18597;48.328;7.932;2023-04-03T03:48:21;5.00;;;3.33;;
32082;SDS011;18597;48.328;7.932;2023-04-03T03:50:47;5.03;;;2.93;;
32082;SDS011;18597;48.328;7.932;2023-04-03T03:53:14;4.83;;;4.53;;
32082;SDS011;18597;48.328;7.932;2023-04-03T03:55:40;3.73;;;3.43;;
32082;SDS011;18597;48.328;7.932;2023-04-03T03:58:07;5.23;;;4.40;;
32082;SDS011;18597;48.328;7.932;2023-04-03T04:00:33;5.03;;;3.97;;
32082;SDS011;18597;48.328;7.932;2023-04-03T04:02:58;4.10;;;3.90;;
32082;SDS011;18597;48.328;7.932;2023-04-03T04:05:25;4.67;;;4.00;;
32082;SDS011;18597;48.328;7.932;2023-04-03T04:07:51;5.27;;;3.43;;
32082;SDS011;18597;48.328;7.932;2023-04-03T04:10:17;3.10;;;3.00;;
32082;SDS011;18597;48.328;7.932;2023-04-03T04:12:43;4.23;;;3.10;;
32082;SDS011;18597;48.328;7.932;2023-04-03T04:15:10;3.93;;;3.63;;
32082;SDS011;18597;48.328;7.932;2023-04-03T04:17:36;3.53;;;3.33;;
32082;SDS011;18597;48.328;7.932;2023-04-03T04:20:02;3.77;;;3.47;;
32082;SDS011;18597;48.328;7.932;2023-04-03T04:22:30;3.70;;;3.50;;
32082;SDS011;18597;48.328;7.932;2023-04-03T04:24:56;3.73;;;3.47;;
32082;SDS011;18597;48.328;7.932;2023-04-03T04:27:21;3.20;;;3.10;;
32082;SDS011;18597;48.328;7.932;2023-04-03T04:29:47;3.33;;;3.03;;
32082;SDS011;18597;48.328;7.932;2023-04-03T04:32:13;5.13;;;3.93;;
32082;SDS011;18597;48.328;7.932;2023-04-03T04:34:39;3.97;;;3.63;;
32082;SDS011;18597;48.328;7.932;2023-04-03T04:37:05;3.73;;;3.50;;
32082;SDS011;18597;48.328;7.932;2023-04-03T04:39:31;3.70;;;3.20;;
32082;SDS011;18597;48.328;7.932;2023-04-03T04:41:56;3.47;;;3.17;;
32082;SDS011;18597;48.328;7.932;2023-04-03T04:44:22;3.40;;;3.10;;
32082;SDS011;18597;48.328;7.932;2023-04-03T04:46:48;4.63;;;4.00;;
32082;SDS011;18597;48.328;7.932;2023-04-03T04:49:14;5.40;;;3.80;;
32082;SDS011;18597;48.328;7.932;2023-04-03T04:51:40;7.90;;;4.80;;
32082;SDS011;18597;48.328;7.932;2023-04-03T04:54:06;3.70;;;3.40;;
32082;SDS011;18597;48.328;7.932;2023-04-03T04:56:31;5.07;;;4.77;;
32082;SDS011;18597;48.328;7.932;2023-04-03T04:58:57;4.13;;;3.57;;
32082;SDS011;18597;48.328;7.932;2023-04-03T05:01:23;4.50;;;4.10;;
32082;SDS011;18597;48.328;7.932;2023-04-03T05:03:49;5.53;;;5.13;;
32082;SDS011;18597;48.328;7.932;2023-04-03T05:06:15;4.50;;;4.33;;
32082;SDS011;18597;48.328;7.932;2023-04-03T05:08:40;4.60;;;4.20;;
32082;SDS011;18597;48.328;7.932;2023-04-03T05:11:06;4.80;;;4.33;;
32082;SDS011;18597;48.328;7.932;2023-04-03T05:13:32;6.27;;;4.40;;
32082;SDS011;18597;48.328;7.932;2023-04-03T05:15:58;5.00;;;4.57;;
32082;SDS011;18597;48.328;7.932;2023-04-03T05:18:24;5.93;;;5.50;;
32082;SDS011;18597;48.328;7.932;2023-04-03T05:20:50;6.13;;;5.63;;
32082;SDS011;18597;48.328;7.932;2023-04-03T05:23:16;3.90;;;3.70;;
32082;SDS011;18597;48.328;7.932;2023-04-03T05:25:43;4.93;;;4.63;;
32082;SDS011;18597;48.328;7.932;2023-04-03T05:28:10;4.73;;;4.43;;
32082;SDS011;18597;48.328;7.932;2023-04-03T05:30:36;5.40;;;4.87;;
32082;SDS011;18597;48.328;7.932;2023-04-03T05:33:02;5.37;;;5.00;;
32082;SDS011;18597;48.328;7.932;2023-04-03T05:35:28;8.47;;;5.20;;
32082;SDS011;18597;48.328;7.932;2023-04-03T05:37:54;5.17;;;4.87;;
32082;SDS011;18597;48.328;7.932;2023-04-03T05:40:20;5.00;;;4.60;;
32082;SDS011;18597;48.328;7.932;2023-04-03T05:42:46;3.30;;;3.10;;
32082;SDS011;18597;48.328;7.932;2023-04-03T05:45:12;5.30;;;4.93;;
32082;SDS011;18597;48.328;7.932;2023-04-03T05:47:38;4.57;;;4.13;;
32082;SDS011;18597;48.328;7.932;2023-04-03T05:50:04;6.57;;;5.83;;
32082;SDS011;18597;48.328;7.932;2023-04-03T05:52:33;7.53;;;6.30;;
32082;SDS011;18597;48.328;7.932;2023-04-03T05:55:02;20.00;;;10.87;;
32082;SDS011;18597;48.328;7.932;2023-04-03T05:57:29;37.40;;;15.10;;
32082;SDS011;18597;48.328;7.932;2023-04-03T05:59:55;4.97;;;4.57;;
32082;SDS011;18597;48.328;7.932;2023-04-03T06:02:21;5.83;;;5.30;;
32082;SDS011;18597;48.328;7.932;2023-04-03T06:04:50;5.47;;;5.13;;
32082;SDS011;18597;48.328;7.932;2023-04-03T06:07:17;10.33;;;8.70;;
32082;SDS011;18597;48.328;7.932;2023-04-03T06:09:47;13.83;;;11.13;;
32082;SDS011;18597;48.328;7.932;2023-04-03T06:12:16;4.10;;;3.90;;
32082;SDS011;18597;48.328;7.932;2023-04-03T06:14:42;3.07;;;2.90;;
32082;SDS011;18597;48.328;7.932;2023-04-03T06:17:08;4.00;;;3.70;;
32082;SDS011;18597;48.328;7.932;2023-04-03T06:19:35;4.40;;;4.10;;
32082;SDS011;18597;48.328;7.932;2023-04-03T06:22:01;3.97;;;3.77;;
32082;SDS011;18597;48.328;7.932;2023-04-03T06:24:28;2.80;;;2.70;;
32082;SDS011;18597;48.328;7.932;2023-04-03T06:26:56;3.47;;;3.37;;
32082;SDS011;18597;48.328;7.932;2023-04-03T06:29:22;4.40;;;4.00;;
32082;SDS011;18597;48.328;7.932;2023-04-03T06:31:49;5.63;;;5.13;;
32082;SDS011;18597;48.328;7.932;2023-04-03T06:34:16;2.87;;;2.73;;
32082;SDS011;18597;48.328;7.932;2023-04-03T06:36:43;4.47;;;4.07;;
32082;SDS011;18597;48.328;7.932;2023-04-03T06:39:12;5.10;;;4.10;;
32082;SDS011;18597;48.328;7.932;2023-04-03T06:41:42;3.67;;;3.37;;
32082;SDS011;18597;48.328;7.932;2023-04-03T06:44:09;3.10;;;2.90;;
32082;SDS011;18597;48.328;7.932;2023-04-03T06:46:38;2.93;;;2.83;;
32082;SDS011;18597;48.328;7.932;2023-04-03T06:49:04;2.70;;;2.70;;
32082;SDS011;18597;48.328;7.932;2023-04-03T06:51:33;2.47;;;2.27;;
32082;SDS011;18597;48.328;7.932;2023-04-03T06:54:00;2.17;;;2.07;;
32082;SDS011;18597;48.328;7.932;2023-04-03T06:56:28;1.97;;;1.97;;
32082;SDS011;18597;48.328;7.932;2023-04-03T06:58:54;2.03;;;2.00;;
32082;SDS011;18597;48.328;7.932;2023-04-03T07:01:23;2.20;;;2.20;;
32082;SDS011;18597;48.328;7.932;2023-04-03T07:03:52;2.90;;;2.80;;
32082;SDS011;18597;48.328;7.932;2023-04-03T07:06:18;3.10;;;2.73;;
32082;SDS011;18597;48.328;7.932;2023-04-03T07:08:45;3.17;;;2.70;;
32082;SDS011;18597;48.328;7.932;2023-04-03T07:11:13;2.47;;;2.30;;
32082;SDS011;18597;48.328;7.932;2023-04-03T07:13:40;3.17;;;2.87;;
32082;SDS011;18597;48.328;7.932;2023-04-03T07:16:06;3.70;;;2.30;;
32082;SDS011;18597;48.328;7.932;2023-04-03T07:18:33;2.47;;;2.27;;
32082;SDS011;18597;48.328;7.932;2023-04-03T07:20:59;2.47;;;2.37;;
32082;SDS011;18597;48.328;7.932;2023-04-03T07:23:25;2.17;;;2.17;;
32082;SDS011;18597;48.328;7.932;2023-04-03T07:25:51;2.30;;;2.20;;
32082;SDS011;18597;48.328;7.932;2023-04-03T07:28:18;3.23;;;3.03;;
32082;SDS011;18597;48.328;7.932;2023-04-03T07:30:49;2.10;;;2.00;;
32082;SDS011;18597;48.328;7.932;2023-04-03T07:33:18;2.80;;;2.70;;
32082;SDS011;18597;48.328;7.932;2023-04-03T07:35:46;2.40;;;2.30;;
32082;SDS011;18597;48.328;7.932;2023-04-03T07:38:12;2.20;;;2.10;;
32082;SDS011;18597;48.328;7.932;2023-04-03T07:40:38;2.37;;;2.30;;
32082;SDS011;18597;48.328;7.932;2023-04-03T07:43:05;2.40;;;2.20;;
32082;SDS011;18597;48.328;7.932;2023-04-03T07:45:32;3.00;;;2.90;;
32082;SDS011;18597;48.328;7.932;2023-04-03T07:48:00;2.30;;;2.20;;
32082;SDS011;18597;48.328;7.932;2023-04-03T07:50:26;2.40;;;1.97;;
32082;SDS011;18597;48.328;7.932;2023-04-03T07:52:52;2.73;;;2.63;;
32082;SDS011;18597;48.328;7.932;2023-04-03T07:55:21;2.10;;;2.10;;
32082;SDS011;18597;48.328;7.932;2023-04-03T07:57:47;2.23;;;2.13;;
32082;SDS011;18597;48.328;7.932;2023-04-03T08:00:13;2.40;;;2.20;;
32082;SDS011;18597;48.328;7.932;2023-04-03T08:02:39;2.53;;;1.73;;
32082;SDS011;18597;48.328;7.932;2023-04-03T08:05:05;1.73;;;1.73;;
32082;SDS011;18597;48.328;7.932;2023-04-03T08:07:31;2.27;;;2.27;;
32082;SDS011;18597;48.328;7.932;2023-04-03T08:09:57;2.70;;;2.60;;
32082;SDS011;18597;48.328;7.932;2023-04-03T08:12:23;2.60;;;2.50;;
32082;SDS011;18597;48.328;7.932;2023-04-03T08:14:49;1.97;;;1.93;;
32082;SDS011;18597;48.328;7.932;2023-04-03T08:17:15;2.30;;;2.10;;
32082;SDS011;18597;48.328;7.932;2023-04-03T08:19:41;2.60;;;2.50;;
32082;SDS011;18597;48.328;7.932;2023-04-03T08:22:07;4.10;;;3.00;;
32082;SDS011;18597;48.328;7.932;2023-04-03T08:24:33;2.60;;;2.60;;
32082;SDS011;18597;48.328;7.932;2023-04-03T08:26:59;3.33;;;3.13;;
32082;SDS011;18597;48.328;7.932;2023-04-03T08:29:25;2.33;;;2.23;;
32082;SDS011;18597;48.328;7.932;2023-04-03T08:31:52;2.43;;;2.33;;
32082;SDS011;18597;48.328;7.932;2023-04-03T08:34:18;2.50;;;2.27;;
32082;SDS011;18597;48.328;7.932;2023-04-03T08:36:45;2.37;;;2.27;;
32082;SDS011;18597;48.328;7.932;2023-04-03T08:39:11;3.13;;;3.00;;
32082;SDS011;18597;48.328;7.932;2023-04-03T08:41:39;2.70;;;2.50;;
32082;SDS011;18597;48.328;7.932;2023-04-03T08:44:39;4.87;;;2.40;;
32082;SDS011;18597;48.328;7.932;2023-04-03T08:47:22;3.20;;;2.30;;
32082;SDS011;18597;48.328;7.932;2023-04-03T08:50:04;2.10;;;2.00;;
32082;SDS011;18597;48.328;7.932;2023-04-03T08:52:39;2.10;;;2.10;;
32082;SDS011;18597;48.328;7.932;2023-04-03T08:55:46;1.60;;;1.50;;
32082;SDS011;18597;48.328;7.932;2023-04-03T08:58:05;2.33;;;2.20;;
32082;SDS011;18597;48.328;7.932;2023-04-03T09:00:40;2.20;;;2.10;;
32082;SDS011;18597;48.328;7.932;2023-04-03T09:03:22;2.73;;;2.63;;
32082;SDS011;18597;48.328;7.932;2023-04-03T09:05:50;11.87;;;10.63;;
32082;SDS011;18597;48.328;7.932;2023-04-03T09:08:27;3.13;;;2.87;;
32082;SDS011;18597;48.328;7.932;2023-04-03T09:11:24;4.33;;;4.03;;
32082;SDS011;18597;48.328;7.932;2023-04-03T09:14:52;6.40;;;4.07;;
32082;SDS011;18597;48.328;7.932;2023-04-03T09:20:39;1.80;;;1.70;;
32082;SDS011;18597;48.328;7.932;2023-04-03T09:23:30;1.90;;;1.90;;
32082;SDS011;18597;48.328;7.932;2023-04-03T09:26:11;3.70;;;1.93;;
32082;SDS011;18597;48.328;7.932;2023-04-03T09:28:51;1.93;;;1.83;;
32082;SDS011;18597;48.328;7.932;2023-04-03T09:31:22;4.10;;;2.20;;
32082;SDS011;18597;48.328;7.932;2023-04-03T09:33:53;3.33;;;2.27;;
32082;SDS011;18597;48.328;7.932;2023-04-03T09:39:19;1.73;;;1.73;;
32082;SDS011;18597;48.328;7.932;2023-04-03T09:44:31;1.77;;;1.70;;
32082;SDS011;18597;48.328;7.932;2023-04-03T09:50:30;2.00;;;1.90;;
32082;SDS011;18597;48.328;7.932;2023-04-03T09:52:47;3.77;;;3.40;;
32082;SDS011;18597;48.328;7.932;2023-04-03T09:55:20;2.10;;;2.00;;
32082;SDS011;18597;48.328;7.932;2023-04-03T09:58:03;1.60;;;1.60;;
32082;SDS011;18597;48.328;7.932;2023-04-03T10:00:53;1.70;;;1.63;;
32082;SDS011;18597;48.328;7.932;2023-04-03T10:03:37;1.30;;;1.30;;
32082;SDS011;18597;48.328;7.932;2023-04-03T10:06:04;1.83;;;1.80;;
32082;SDS011;18597;48.328;7.932;2023-04-03T10:09:05;4.60;;;1.83;;
32082;SDS011;18597;48.328;7.932;2023-04-03T10:12:02;1.60;;;1.60;;
32082;SDS011;18597;48.328;7.932;2023-04-03T10:14:36;2.07;;;2.00;;
32082;SDS011;18597;48.328;7.932;2023-04-03T10:17:20;1.50;;;1.50;;
32082;SDS011;18597;48.328;7.932;2023-04-03T10:20:49;10.43;;;1.27;;
32082;SDS011;18597;48.328;7.932;2023-04-03T10:23:24;1.70;;;1.70;;
32082;SDS011;18597;48.328;7.932;2023-04-03T10:26:12;1.40;;;1.30;;
32082;SDS011;18597;48.328;7.932;2023-04-03T10:32:42;1.93;;;1.23;;
32082;SDS011;18597;48.328;7.932;2023-04-03T10:48:33;1.43;;;1.43;;
32082;SDS011;18597;48.328;7.932;2023-04-03T10:51:27;1.80;;;1.70;;
32082;SDS011;18597;48.328;7.932;2023-04-03T10:57:05;2.30;;;2.20;;
32082;SDS011;18597;48.328;7.932;2023-04-03T10:59:36;2.40;;;1.73;;
32082;SDS011;18597;48.328;7.932;2023-04-03T11:02:16;1.00;;;1.00;;
32082;SDS011;18597;48.328;7.932;2023-04-03T11:05:04;2.30;;;2.20;;
32082;SDS011;18597;48.328;7.932;2023-04-03T11:07:42;1.27;;;1.17;;
32082;SDS011;18597;48.328;7.932;2023-04-03T11:10:17;1.40;;;1.40;;
32082;SDS011;18597;48.328;7.932;2023-04-03T11:13:10;2.10;;;1.40;;
32082;SDS011;18597;48.328;7.932;2023-04-03T11:15:48;1.43;;;1.33;;
32082;SDS011;18597;48.328;7.932;2023-04-03T11:18:21;1.57;;;1.57;;
32082;SDS011;18597;48.328;7.932;2023-04-03T11:21:17;1.60;;;1.50;;
32082;SDS011;18597;48.328;7.932;2023-04-03T11:23:54;2.03;;;1.83;;
32082;SDS011;18597;48.328;7.932;2023-04-03T11:26:24;1.60;;;1.50;;
32082;SDS011;18597;48.328;7.932;2023-04-03T11:28:59;4.00;;;3.60;;
32082;SDS011;18597;48.328;7.932;2023-04-03T11:31:35;1.57;;;1.47;;
32082;SDS011;18597;48.328;7.932;2023-04-03T11:34:44;1.53;;;1.43;;
32082;SDS011;18597;48.328;7.932;2023-04-03T11:39:54;3.70;;;3.40;;
32082;SDS011;18597;48.328;7.932;2023-04-03T11:42:29;2.80;;;2.80;;
32082;SDS011;18597;48.328;7.932;2023-04-03T11:47:58;2.50;;;2.33;;
32082;SDS011;18597;48.328;7.932;2023-04-03T11:51:02;1.50;;;1.50;;
32082;SDS011;18597;48.328;7.932;2023-04-03T12:08:46;2.23;;;2.13;;
32082;SDS011;18597;48.328;7.932;2023-04-03T12:11:21;2.77;;;1.57;;
32082;SDS011;18597;48.328;7.932;2023-04-03T12:16:32;1.67;;;1.60;;
32082;SDS011;18597;48.328;7.932;2023-04-03T12:24:36;2.37;;;2.20;;
32082;SDS011;18597;48.328;7.932;2023-04-03T12:29:58;2.70;;;2.20;;
32082;SDS011;18597;48.328;7.932;2023-04-03T12:35:55;1.90;;;1.80;;
32082;SDS011;18597;48.328;7.932;2023-04-03T12:41:55;1.57;;;1.47;;
32082;SDS011;18597;48.328;7.932;2023-04-03T12:44:58;2.17;;;2.00;;
32082;SDS011;18597;48.328;7.932;2023-04-03T12:47:44;2.73;;;2.53;;
32082;SDS011;18597;48.328;7.932;2023-04-03T12:50:20;1.67;;;1.67;;
32082;SDS011;18597;48.328;7.932;2023-04-03T12:52:54;4.07;;;1.90;;
32082;SDS011;18597;48.328;7.932;2023-04-03T12:55:29;1.97;;;1.87;;
32082;SDS011;18597;48.328;7.932;2023-04-03T12:57:55;2.00;;;2.00;;
32082;SDS011;18597;48.328;7.932;2023-04-03T13:02:58;1.40;;;1.33;;
32082;SDS011;18597;48.328;7.932;2023-04-03T13:05:26;5.70;;;2.10;;
32082;SDS011;18597;48.328;7.932;2023-04-03T13:08:02;2.13;;;2.03;;
32082;SDS011;18597;48.328;7.932;2023-04-03T13:10:35;2.73;;;2.63;;
32082;SDS011;18597;48.328;7.932;2023-04-03T13:13:35;1.53;;;1.53;;
32082;SDS011;18597;48.328;7.932;2023-04-03T13:16:10;1.53;;;1.53;;
32082;SDS011;18597;48.328;7.932;2023-04-03T13:18:38;2.17;;;2.17;;
32082;SDS011;18597;48.328;7.932;2023-04-03T13:21:07;2.70;;;1.90;;
32082;SDS011;18597;48.328;7.932;2023-04-03T13:23:45;2.00;;;1.90;;
32082;SDS011;18597;48.328;7.932;2023-04-03T13:26:15;2.00;;;1.90;;
32082;SDS011;18597;48.328;7.932;2023-04-03T13:28:45;1.83;;;1.73;;
32082;SDS011;18597;48.328;7.932;2023-04-03T13:34:06;1.47;;;1.47;;
32082;SDS011;18597;48.328;7.932;2023-04-03T13:36:58;1.80;;;1.30;;
32082;SDS011;18597;48.328;7.932;2023-04-03T13:39:27;1.93;;;1.93;;
32082;SDS011;18597;48.328;7.932;2023-04-03T13:41:58;5.10;;;4.70;;
32082;SDS011;18597;48.328;7.932;2023-04-03T13:44:30;4.07;;;3.00;;
32082;SDS011;18597;48.328;7.932;2023-04-03T13:47:15;9.37;;;4.27;;
32082;SDS011;18597;48.328;7.932;2023-04-03T13:49:58;7.43;;;4.80;;
32082;SDS011;18597;48.328;7.932;2023-04-03T13:52:49;2.50;;;2.40;;
32082;SDS011;18597;48.328;7.932;2023-04-03T13:55:24;1.70;;;1.60;;
32082;SDS011;18597;48.328;7.932;2023-04-03T13:57:56;5.07;;;2.10;;
32082;SDS011;18597;48.328;7.932;2023-04-03T14:00:50;2.17;;;2.07;;
32082;SDS011;18597;48.328;7.932;2023-04-03T14:03:33;1.60;;;1.60;;
32082;SDS011;18597;48.328;7.932;2023-04-03T14:06:11;2.20;;;2.10;;
32082;SDS011;18597;48.328;7.932;2023-04-03T14:08:41;1.80;;;1.70;;
32082;SDS011;18597;48.328;7.932;2023-04-03T14:11:12;1.93;;;1.60;;
32082;SDS011;18597;48.328;7.932;2023-04-03T14:13:44;1.53;;;1.53;;
32082;SDS011;18597;48.328;7.932;2023-04-03T14:16:12;2.77;;;1.83;;
32082;SDS011;18597;48.328;7.932;2023-04-03T14:18:42;8.63;;;4.73;;
32082;SDS011;18597;48.328;7.932;2023-04-03T14:21:11;17.43;;;3.97;;
32082;SDS011;18597;48.328;7.932;2023-04-03T14:23:40;2.00;;;1.77;;
32082;SDS011;18597;48.328;7.932;2023-04-03T14:26:15;1.67;;;1.57;;
32082;SDS011;18597;48.328;7.932;2023-04-03T14:28:46;2.70;;;2.60;;
32082;SDS011;18597;48.328;7.932;2023-04-03T14:31:15;2.60;;;2.50;;
32082;SDS011;18597;48.328;7.932;2023-04-03T14:33:43;3.17;;;2.27;;
32082;SDS011;18597;48.328;7.932;2023-04-03T14:36:12;3.40;;;2.30;;
32082;SDS011;18597;48.328;7.932;2023-04-03T14:38:43;4.43;;;2.00;;
32082;SDS011;18597;48.328;7.932;2023-04-03T14:41:12;2.60;;;2.37;;
32082;SDS011;18597;48.328;7.932;2023-04-03T14:43:40;2.03;;;1.93;;
32082;SDS011;18597;48.328;7.932;2023-04-03T14:46:14;2.00;;;1.70;;
32082;SDS011;18597;48.328;7.932;2023-04-03T14:49:00;2.93;;;1.80;;
32082;SDS011;18597;48.328;7.932;2023-04-03T14:51:26;8.07;;;5.90;;
32082;SDS011;18597;48.328;7.932;2023-04-03T14:53:52;2.10;;;2.00;;
32082;SDS011;18597;48.328;7.932;2023-04-03T14:56:22;1.90;;;1.57;;
32082;SDS011;18597;48.328;7.932;2023-04-03T14:58:54;1.60;;;1.50;;
32082;SDS011;18597;48.328;7.932;2023-04-03T15:01:23;2.20;;;2.00;;
32082;SDS011;18597;48.328;7.932;2023-04-03T15:03:49;1.63;;;1.53;;
32082;SDS011;18597;48.328;7.932;2023-04-03T15:06:15;2.80;;;2.70;;
32082;SDS011;18597;48.328;7.932;2023-04-03T15:08:42;1.87;;;1.80;;
32082;SDS011;18597;48.328;7.932;2023-04-03T15:11:09;6.67;;;3.67;;
32082;SDS011;18597;48.328;7.932;2023-04-03T15:13:36;3.60;;;1.50;;
32082;SDS011;18597;48.328;7.932;2023-04-03T15:16:04;3.87;;;2.97;;
32082;SDS011;18597;48.328;7.932;2023-04-03T15:18:37;1.63;;;1.47;;
32082;SDS011;18597;48.328;7.932;2023-04-03T15:21:04;4.07;;;3.77;;
32082;SDS011;18597;48.328;7.932;2023-04-03T15:23:31;6.90;;;4.77;;
32082;SDS011;18597;48.328;7.932;2023-04-03T15:25:57;4.57;;;3.70;;
32082;SDS011;18597;48.328;7.932;2023-04-03T15:28:27;5.17;;;3.10;;
32082;SDS011;18597;48.328;7.932;2023-04-03T15:30:59;3.70;;;2.23;;
32082;SDS011;18597;48.328;7.932;2023-04-03T15:33:25;2.70;;;2.60;;
32082;SDS011;18597;48.328;7.932;2023-04-03T15:35:52;3.97;;;1.80;;
32082;SDS011;18597;48.328;7.932;2023-04-03T15:38:18;2.17;;;2.17;;
32082;SDS011;18597;48.328;7.932;2023-04-03T15:40:58;2.30;;;2.10;;
32082;SDS011;18597;48.328;7.932;2023-04-03T15:43:23;2.40;;;2.23;;
32082;SDS011;18597;48.328;7.932;2023-04-03T15:45:49;2.57;;;2.37;;
32082;SDS011;18597;48.328;7.932;2023-04-03T15:48:16;2.70;;;1.83;;
32082;SDS011;18597;48.328;7.932;2023-04-03T15:50:43;2.10;;;2.10;;
32082;SDS011;18597;48.328;7.932;2023-04-03T15:53:09;3.80;;;2.43;;
32082;SDS011;18597;48.328;7.932;2023-04-03T15:55:36;2.20;;;2.10;;
32082;SDS011;18597;48.328;7.932;2023-04-03T15:58:03;2.00;;;1.83;;
32082;SDS011;18597;48.328;7.932;2023-04-03T16:00:29;5.97;;;4.47;;
32082;SDS011;18597;48.328;7.932;2023-04-03T16:02:59;4.17;;;2.50;;
32082;SDS011;18597;48.328;7.932;2023-04-03T16:05:29;4.87;;;3.00;;
32082;SDS011;18597;48.328;7.932;2023-04-03T16:07:56;2.03;;;2.00;;
32082;SDS011;18597;48.328;7.932;2023-04-03T16:10:25;2.80;;;2.70;;
32082;SDS011;18597;48.328;7.932;2023-04-03T16:12:52;1.40;;;1.40;;
32082;SDS011;18597;48.328;7.932;2023-04-03T16:15:17;1.80;;;1.80;;
32082;SDS011;18597;48.328;7.932;2023-04-03T16:17:43;3.47;;;3.23;;
32082;SDS011;18597;48.328;7.932;2023-04-03T16:20:10;4.73;;;4.40;;
32082;SDS011;18597;48.328;7.932;2023-04-03T16:22:37;8.53;;;2.80;;
32082;SDS011;18597;48.328;7.932;2023-04-03T16:25:05;5.03;;;2.70;;
32082;SDS011;18597;48.328;7.932;2023-04-03T16:27:32;6.47;;;5.87;;
32082;SDS011;18597;48.328;7.932;2023-04-03T16:29:59;10.33;;;9.23;;